sensor_id;sensor_type;location;lat;lon;timestamp;P1;durP1;ratioP1;P2;durP2;ratioP2
9665;SDS011;4871;52.004;5.924;2023-02-28T00:00:00;4.60;;;3.20;;
9665;SDS011;4871;52.004;5.924;2023-02-28T00:01:00;4.60;;;3.20;;
9665;SDS011;4871;52.004;5.924;2023-02-28T00:02:01;4.60;;;3.20;;
9665;SDS011;4871;52.004;5.924;2023-02-28T00:03:00;4.60;;;3.20;;
9665;SDS011;4871;52.004;5.924;2023-02-28T00:04:00;4.60;;;3.20;;
9665;SDS011;4871;52.004;5.924;2023-02-28T00:05:03;4.60;;;3.20;;
9665;SDS011;4871;52.004;5.924;2023-02-28T00:06:00;4.60;;;3.20;;
9665;SDS011;4871;52.004;5.924;2023-02-28T00:07:00;4.60;;;3.20;;
9665;SDS011;4871;52.004;5.924;2023-02-28T00:08:00;4.60;;;3.20;;
9665;SDS011;4871;52.004;5.924;2023-02-28T00:09:00;4.60;;;3.20;;
9665;SDS011;4871;52.004;5.924;2023-02-28T00:10:00;4.60;;;3.20;;
9665;SDS011;4871;52.004;5.924;2023-02-28T00:11:02;4.60;;;3.20;;
9665;SDS011;4871;52.004;5.924;2023-02-28T00:12:03;4.60;;;3.20;;
9665;SDS011;4871;52.004;5.924;2023-02-28T00:13:01;4.60;;;3.20;;
9665;SDS011;4871;52.004;5.924;2023-02-28T00:14:00;4.60;;;3.20;;
9665;SDS011;4871;52.004;5.924;2023-02-28T00:15:00;4.60;;;3.20;;
9665;SDS011;4871;52.004;5.924;2023-02-28T00:16:01;4.60;;;3.20;;
9665;SDS011;4871;52.004;5.924;2023-02-28T00:17:00;4.60;;;3.20;;
9665;SDS011;4871;52.004;5.924;2023-02-28T00:18:00;4.60;;;3.20;;
9665;SDS011;4871;52.004;5.924;2023-02-28T00:19:02;4.60;;;3.20;;
9665;SDS011;4871;52.004;5.924;2023-02-28T00:20:10;4.60;;;3.20;;
9665;SDS011;4871;52.004;5.924;2023-02-28T00:21:00;4.60;;;3.20;;
9665;SDS011;4871;52.004;5.924;2023-02-28T00:22:00;4.60;;;3.20;;
9665;SDS011;4871;52.004;5.924;2023-02-28T00:23:00;4.60;;;3.20;;
9665;SDS011;4871;52.004;5.924;2023-02-28T00:24:00;4.60;;;3.20;;
9665;SDS011;4871;52.004;5.924;2023-02-28T00:25:00;4.60;;;3.20;;
9665;SDS011;4871;52.004;5.924;2023-02-28T00:26:00;4.60;;;3.20;;
9665;SDS011;4871;52.004;5.924;2023-02-28T00:27:00;4.60;;;3.20;;
9665;SDS011;4871;52.004;5.924;2023-02-28T00:28:00;4.60;;;3.20;;
9665;SDS011;4871;52.004;5.924;2023-02-28T00:29:00;4.60;;;3.20;;
9665;SDS011;4871;52.004;5.924;2023-02-28T00:30:00;3.70;;;3.40;;
9665;SDS011;4871;52.004;5.924;2023-02-28T00:31:00;3.70;;;3.40;;
9665;SDS011;4871;52.004;5.924;2023-02-28T00:32:00;3.70;;;3.40;;
9665;SDS011;4871;52.004;5.924;2023-02-28T00:33:00;3.70;;;3.40;;
9665;SDS011;4871;52.004;5.924;2023-02-28T00:34:00;3.70;;;3.40;;
9665;SDS011;4871;52.004;5.924;2023-02-28T00:35:00;3.70;;;3.40;;
9665;SDS011;4871;52.004;5.924;2023-02-28T00:36:01;3.70;;;3.40;;
9665;SDS011;4871;52.004;5.924;2023-02-28T00:37:00;3.70;;;3.40;;
9665;SDS011;4871;52.004;5.924;2023-02-28T00:38:00;3.70;;;3.40;;
9665;SDS011;4871;52.004;5.924;2023-02-28T00:39:00;3.70;;;3.40;;
9665;SDS011;4871;52.004;5.924;2023-02-28T00:40:00;3.70;;;3.40;;
9665;SDS011;4871;52.004;5.924;2023-02-28T00:41:04;3.70;;;3.40;;
9665;SDS011;4871;52.004;5.924;2023-02-28T00:42:00;3.70;;;3.40;;
9665;SDS011;4871;52.004;5.924;2023-02-28T00:43:00;3.70;;;3.40;;
9665;SDS011;4871;52.004;5.924;2023-02-28T00:44:00;3.70;;;3.40;;
9665;SDS011;4871;52.004;5.924;2023-02-28T00:45:00;3.70;;;3.40;;
9665;SDS011;4871;52.004;5.924;2023-02-28T00:46:00;3.70;;;3.40;;
9665;SDS011;4871;52.004;5.924;2023-02-28T00:47:00;3.70;;;3.40;;
9665;SDS011;4871;52.004;5.924;2023-02-28T00:48:00;3.70;;;3.40;;
9665;SDS011;4871;52.004;5.924;2023-02-28T00:49:00;3.70;;;3.40;;
9665;SDS011;4871;52.004;5.924;2023-02-28T00:50:00;3.70;;;3.40;;
9665;SDS011;4871;52.004;5.924;2023-02-28T00:51:00;3.70;;;3.40;;
9665;SDS011;4871;52.004;5.924;2023-02-28T00:52:00;3.70;;;3.40;;
9665;SDS011;4871;52.004;5.924;2023-02-28T00:53:00;3.70;;;3.40;;
9665;SDS011;4871;52.004;5.924;2023-02-28T00:54:00;3.70;;;3.40;;
9665;SDS011;4871;52.004;5.924;2023-02-28T00:55:00;3.70;;;3.40;;
9665;SDS011;4871;52.004;5.924;2023-02-28T00:56:00;3.70;;;3.40;;
9665;SDS011;4871;52.004;5.924;2023-02-28T00:57:00;3.70;;;3.40;;
9665;SDS011;4871;52.004;5.924;2023-02-28T00:58:00;3.70;;;3.40;;
9665;SDS011;4871;52.004;5.924;2023-02-28T00:59:00;3.70;;;3.40;;
9665;SDS011;4871;52.004;5.924;2023-02-28T01:00:00;4.30;;;3.90;;
9665;SDS011;4871;52.004;5.924;2023-02-28T01:01:00;4.30;;;3.90;;
9665;SDS011;4871;52.004;5.924;2023-02-28T01:02:00;4.30;;;3.90;;
9665;SDS011;4871;52.004;5.924;2023-02-28T01:03:00;4.30;;;3.90;;
9665;SDS011;4871;52.004;5.924;2023-02-28T01:04:00;4.30;;;3.90;;
9665;SDS011;4871;52.004;5.924;2023-02-28T01:05:00;4.30;;;3.90;;
9665;SDS011;4871;52.004;5.924;2023-02-28T01:06:00;4.30;;;3.90;;
9665;SDS011;4871;52.004;5.924;2023-02-28T01:07:00;4.30;;;3.90;;
9665;SDS011;4871;52.004;5.924;2023-02-28T01:08:00;4.30;;;3.90;;
9665;SDS011;4871;52.004;5.924;2023-02-28T01:09:00;4.30;;;3.90;;
9665;SDS011;4871;52.004;5.924;2023-02-28T01:10:00;4.30;;;3.90;;
9665;SDS011;4871;52.004;5.924;2023-02-28T01:11:06;4.30;;;3.90;;
9665;SDS011;4871;52.004;5.924;2023-02-28T01:12:00;4.30;;;3.90;;
9665;SDS011;4871;52.004;5.924;2023-02-28T01:13:00;4.30;;;3.90;;
9665;SDS011;4871;52.004;5.924;2023-02-28T01:14:00;4.30;;;3.90;;
9665;SDS011;4871;52.004;5.924;2023-02-28T01:15:00;4.30;;;3.90;;
9665;SDS011;4871;52.004;5.924;2023-02-28T01:16:00;4.30;;;3.90;;
9665;SDS011;4871;52.004;5.924;2023-02-28T01:17:00;4.30;;;3.90;;
9665;SDS011;4871;52.004;5.924;2023-02-28T01:18:00;4.30;;;3.90;;
9665;SDS011;4871;52.004;5.924;2023-02-28T01:19:00;4.30;;;3.90;;
9665;SDS011;4871;52.004;5.924;2023-02-28T01:20:00;4.30;;;3.90;;
9665;SDS011;4871;52.004;5.924;2023-02-28T01:21:02;4.30;;;3.90;;
9665;SDS011;4871;52.004;5.924;2023-02-28T01:22:00;4.30;;;3.90;;
9665;SDS011;4871;52.004;5.924;2023-02-28T01:23:00;4.30;;;3.90;;
9665;SDS011;4871;52.004;5.924;2023-02-28T01:24:00;4.30;;;3.90;;
9665;SDS011;4871;52.004;5.924;2023-02-28T01:25:00;4.30;;;3.90;;
9665;SDS011;4871;52.004;5.924;2023-02-28T01:26:03;4.30;;;3.90;;
9665;SDS011;4871;52.004;5.924;2023-02-28T01:27:00;4.30;;;3.90;;
9665;SDS011;4871;52.004;5.924;2023-02-28T01:28:00;4.30;;;3.90;;
9665;SDS011;4871;52.004;5.924;2023-02-28T01:29:00;4.30;;;3.90;;
9665;SDS011;4871;52.004;5.924;2023-02-28T01:30:00;5.70;;;3.80;;
9665;SDS011;4871;52.004;5.924;2023-02-28T01:31:00;5.70;;;3.80;;
9665;SDS011;4871;52.004;5.924;2023-02-28T01:32:00;5.70;;;3.80;;
9665;SDS011;4871;52.004;5.924;2023-02-28T01:33:00;5.70;;;3.80;;
9665;SDS011;4871;52.004;5.924;2023-02-28T01:34:00;5.70;;;3.80;;
9665;SDS011;4871;52.004;5.924;2023-02-28T01:35:00;5.70;;;3.80;;
9665;SDS011;4871;52.004;5.924;2023-02-28T01:36:00;5.70;;;3.80;;
9665;SDS011;4871;52.004;5.924;2023-02-28T01:37:01;5.70;;;3.80;;
9665;SDS011;4871;52.004;5.924;2023-02-28T01:38:00;5.70;;;3.80;;
9665;SDS011;4871;52.004;5.924;2023-02-28T01:39:00;5.70;;;3.80;;
9665;SDS011;4871;52.004;5.924;2023-02-28T01:40:00;5.70;;;3.80;;
9665;SDS011;4871;52.004;5.924;2023-02-28T01:41:00;5.70;;;3.80;;
9665;SDS011;4871;52.004;5.924;2023-02-28T01:42:00;5.70;;;3.80;;
9665;SDS011;4871;52.004;5.924;2023-02-28T01:43:00;5.70;;;3.80;;
9665;SDS011;4871;52.004;5.924;2023-02-28T01:44:04;5.70;;;3.80;;
9665;SDS011;4871;52.004;5.924;2023-02-28T01:45:02;5.70;;;3.80;;
9665;SDS011;4871;52.004;5.924;2023-02-28T01:46:00;5.70;;;3.80;;
9665;SDS011;4871;52.004;5.924;2023-02-28T01:47:00;5.70;;;3.80;;
9665;SDS011;4871;52.004;5.924;2023-02-28T01:48:02;5.70;;;3.80;;
9665;SDS011;4871;52.004;5.924;2023-02-28T01:49:02;5.70;;;3.80;;
9665;SDS011;4871;52.004;5.924;2023-02-28T01:50:04;5.70;;;3.80;;
9665;SDS011;4871;52.004;5.924;2023-02-28T01:51:00;5.70;;;3.80;;
9665;SDS011;4871;52.004;5.924;2023-02-28T01:52:00;5.70;;;3.80;;
9665;SDS011;4871;52.004;5.924;2023-02-28T01:53:00;5.70;;;3.80;;
9665;SDS011;4871;52.004;5.924;2023-02-28T01:54:01;5.70;;;3.80;;
9665;SDS011;4871;52.004;5.924;2023-02-28T01:55:01;5.70;;;3.80;;
9665;SDS011;4871;52.004;5.924;2023-02-28T01:56:00;5.70;;;3.80;;
9665;SDS011;4871;52.004;5.924;2023-02-28T01:57:01;5.70;;;3.80;;
9665;SDS011;4871;52.004;5.924;2023-02-28T01:58:01;5.70;;;3.80;;
9665;SDS011;4871;52.004;5.924;2023-02-28T01:59:00;5.70;;;3.80;;
9665;SDS011;4871;52.004;5.924;2023-02-28T02:00:00;4.60;;;3.70;;
9665;SDS011;4871;52.004;5.924;2023-02-28T02:01:03;4.60;;;3.70;;
9665;SDS011;4871;52.004;5.924;2023-02-28T02:02:00;4.60;;;3.70;;
9665;SDS011;4871;52.004;5.924;2023-02-28T02:03:01;4.60;;;3.70;;
9665;SDS011;4871;52.004;5.924;2023-02-28T02:04:01;4.60;;;3.70;;
9665;SDS011;4871;52.004;5.924;2023-02-28T02:05:03;4.60;;;3.70;;
9665;SDS011;4871;52.004;5.924;2023-02-28T02:06:00;4.60;;;3.70;;
9665;SDS011;4871;52.004;5.924;2023-02-28T02:07:00;4.60;;;3.70;;
9665;SDS011;4871;52.004;5.924;2023-02-28T02:08:01;4.60;;;3.70;;
9665;SDS011;4871;52.004;5.924;2023-02-28T02:09:00;4.60;;;3.70;;
9665;SDS011;4871;52.004;5.924;2023-02-28T02:10:01;4.60;;;3.70;;
9665;SDS011;4871;52.004;5.924;2023-02-28T02:11:01;4.60;;;3.70;;
9665;SDS011;4871;52.004;5.924;2023-02-28T02:12:00;4.60;;;3.70;;
9665;SDS011;4871;52.004;5.924;2023-02-28T02:14:12;4.60;;;3.70;;
9665;SDS011;4871;52.004;5.924;2023-02-28T02:15:01;4.60;;;3.70;;
9665;SDS011;4871;52.004;5.924;2023-02-28T02:16:03;4.60;;;3.70;;
9665;SDS011;4871;52.004;5.924;2023-02-28T02:17:04;4.60;;;3.70;;
9665;SDS011;4871;52.004;5.924;2023-02-28T02:18:01;4.60;;;3.70;;
9665;SDS011;4871;52.004;5.924;2023-02-28T02:19:02;4.60;;;3.70;;
9665;SDS011;4871;52.004;5.924;2023-02-28T02:20:15;4.60;;;3.70;;
9665;SDS011;4871;52.004;5.924;2023-02-28T02:21:07;4.60;;;3.70;;
9665;SDS011;4871;52.004;5.924;2023-02-28T02:22:15;4.60;;;3.70;;
9665;SDS011;4871;52.004;5.924;2023-02-28T02:23:11;4.60;;;3.70;;
9665;SDS011;4871;52.004;5.924;2023-02-28T02:24:03;4.60;;;3.70;;
9665;SDS011;4871;52.004;5.924;2023-02-28T02:25:10;4.60;;;3.70;;
9665;SDS011;4871;52.004;5.924;2023-02-28T02:26:03;4.60;;;3.70;;
9665;SDS011;4871;52.004;5.924;2023-02-28T02:27:03;4.60;;;3.70;;
9665;SDS011;4871;52.004;5.924;2023-02-28T02:29:13;4.60;;;3.70;;
9665;SDS011;4871;52.004;5.924;2023-02-28T02:31:13;3.80;;;3.20;;
9665;SDS011;4871;52.004;5.924;2023-02-28T02:32:11;3.80;;;3.20;;
9665;SDS011;4871;52.004;5.924;2023-02-28T02:33:03;3.80;;;3.20;;
9665;SDS011;4871;52.004;5.924;2023-02-28T02:34:04;3.80;;;3.20;;
9665;SDS011;4871;52.004;5.924;2023-02-28T02:35:01;3.80;;;3.20;;
9665;SDS011;4871;52.004;5.924;2023-02-28T02:36:01;3.80;;;3.20;;
9665;SDS011;4871;52.004;5.924;2023-02-28T02:37:02;3.80;;;3.20;;
9665;SDS011;4871;52.004;5.924;2023-02-28T02:38:02;3.80;;;3.20;;
9665;SDS011;4871;52.004;5.924;2023-02-28T02:39:02;3.80;;;3.20;;
9665;SDS011;4871;52.004;5.924;2023-02-28T02:40:04;3.80;;;3.20;;
9665;SDS011;4871;52.004;5.924;2023-02-28T02:41:03;3.80;;;3.20;;
9665;SDS011;4871;52.004;5.924;2023-02-28T02:42:00;3.80;;;3.20;;
9665;SDS011;4871;52.004;5.924;2023-02-28T02:43:01;3.80;;;3.20;;
9665;SDS011;4871;52.004;5.924;2023-02-28T02:44:02;3.80;;;3.20;;
9665;SDS011;4871;52.004;5.924;2023-02-28T02:45:01;3.80;;;3.20;;
9665;SDS011;4871;52.004;5.924;2023-02-28T02:46:01;3.80;;;3.20;;
9665;SDS011;4871;52.004;5.924;2023-02-28T02:47:01;3.80;;;3.20;;
9665;SDS011;4871;52.004;5.924;2023-02-28T02:48:00;3.80;;;3.20;;
9665;SDS011;4871;52.004;5.924;2023-02-28T02:49:00;3.80;;;3.20;;
9665;SDS011;4871;52.004;5.924;2023-02-28T02:50:02;3.80;;;3.20;;
9665;SDS011;4871;52.004;5.924;2023-02-28T02:51:00;3.80;;;3.20;;
9665;SDS011;4871;52.004;5.924;2023-02-28T02:52:01;3.80;;;3.20;;
9665;SDS011;4871;52.004;5.924;2023-02-28T02:53:00;3.80;;;3.20;;
9665;SDS011;4871;52.004;5.924;2023-02-28T02:54:02;3.80;;;3.20;;
9665;SDS011;4871;52.004;5.924;2023-02-28T02:55:00;3.80;;;3.20;;
9665;SDS011;4871;52.004;5.924;2023-02-28T02:56:00;3.80;;;3.20;;
9665;SDS011;4871;52.004;5.924;2023-02-28T02:57:01;3.80;;;3.20;;
9665;SDS011;4871;52.004;5.924;2023-02-28T02:58:01;3.80;;;3.20;;
9665;SDS011;4871;52.004;5.924;2023-02-28T02:59:01;5.10;;;3.40;;
9665;SDS011;4871;52.004;5.924;2023-02-28T03:00:00;5.10;;;3.40;;
9665;SDS011;4871;52.004;5.924;2023-02-28T03:01:00;5.10;;;3.40;;
9665;SDS011;4871;52.004;5.924;2023-02-28T03:02:01;5.10;;;3.40;;
9665;SDS011;4871;52.004;5.924;2023-02-28T03:03:00;5.10;;;3.40;;
9665;SDS011;4871;52.004;5.924;2023-02-28T03:04:01;5.10;;;3.40;;
9665;SDS011;4871;52.004;5.924;2023-02-28T03:05:01;5.10;;;3.40;;
9665;SDS011;4871;52.004;5.924;2023-02-28T03:06:00;5.10;;;3.40;;
9665;SDS011;4871;52.004;5.924;2023-02-28T03:07:00;5.10;;;3.40;;
9665;SDS011;4871;52.004;5.924;2023-02-28T03:08:03;5.10;;;3.40;;
9665;SDS011;4871;52.004;5.924;2023-02-28T03:09:00;5.10;;;3.40;;
9665;SDS011;4871;52.004;5.924;2023-02-28T03:10:01;5.10;;;3.40;;
9665;SDS011;4871;52.004;5.924;2023-02-28T03:11:00;5.10;;;3.40;;
9665;SDS011;4871;52.004;5.924;2023-02-28T03:12:00;5.10;;;3.40;;
9665;SDS011;4871;52.004;5.924;2023-02-28T03:13:03;5.10;;;3.40;;
9665;SDS011;4871;52.004;5.924;2023-02-28T03:14:04;5.10;;;3.40;;
9665;SDS011;4871;52.004;5.924;2023-02-28T03:15:03;5.10;;;3.40;;
9665;SDS011;4871;52.004;5.924;2023-02-28T03:16:05;5.10;;;3.40;;
9665;SDS011;4871;52.004;5.924;2023-02-28T03:17:06;5.10;;;3.40;;
9665;SDS011;4871;52.004;5.924;2023-02-28T03:18:02;5.10;;;3.40;;
9665;SDS011;4871;52.004;5.924;2023-02-28T03:19:03;5.10;;;3.40;;
9665;SDS011;4871;52.004;5.924;2023-02-28T03:20:11;5.10;;;3.40;;
9665;SDS011;4871;52.004;5.924;2023-02-28T03:21:02;5.10;;;3.40;;
9665;SDS011;4871;52.004;5.924;2023-02-28T03:22:04;5.10;;;3.40;;
9665;SDS011;4871;52.004;5.924;2023-02-28T03:23:02;5.10;;;3.40;;
9665;SDS011;4871;52.004;5.924;2023-02-28T03:24:02;5.10;;;3.40;;
9665;SDS011;4871;52.004;5.924;2023-02-28T03:25:01;5.10;;;3.40;;
9665;SDS011;4871;52.004;5.924;2023-02-28T03:26:02;5.10;;;3.40;;
9665;SDS011;4871;52.004;5.924;2023-02-28T03:27:03;5.10;;;3.40;;
9665;SDS011;4871;52.004;5.924;2023-02-28T03:28:04;5.10;;;3.40;;
9665;SDS011;4871;52.004;5.924;2023-02-28T03:29:02;3.40;;;3.10;;
9665;SDS011;4871;52.004;5.924;2023-02-28T03:30:00;3.40;;;3.10;;
9665;SDS011;4871;52.004;5.924;2023-02-28T03:31:00;3.40;;;3.10;;
9665;SDS011;4871;52.004;5.924;2023-02-28T03:32:02;3.40;;;3.10;;
9665;SDS011;4871;52.004;5.924;2023-02-28T03:33:02;3.40;;;3.10;;
9665;SDS011;4871;52.004;5.924;2023-02-28T03:34:01;3.40;;;3.10;;
9665;SDS011;4871;52.004;5.924;2023-02-28T03:35:01;3.40;;;3.10;;
9665;SDS011;4871;52.004;5.924;2023-02-28T03:36:01;3.40;;;3.10;;
9665;SDS011;4871;52.004;5.924;2023-02-28T03:37:02;3.40;;;3.10;;
9665;SDS011;4871;52.004;5.924;2023-02-28T03:38:00;3.40;;;3.10;;
9665;SDS011;4871;52.004;5.924;2023-02-28T03:39:03;3.40;;;3.10;;
9665;SDS011;4871;52.004;5.924;2023-02-28T03:40:00;3.40;;;3.10;;
9665;SDS011;4871;52.004;5.924;2023-02-28T03:41:02;3.40;;;3.10;;
9665;SDS011;4871;52.004;5.924;2023-02-28T03:42:00;3.40;;;3.10;;
9665;SDS011;4871;52.004;5.924;2023-02-28T03:43:01;3.40;;;3.10;;
9665;SDS011;4871;52.004;5.924;2023-02-28T03:44:01;3.40;;;3.10;;
9665;SDS011;4871;52.004;5.924;2023-02-28T03:45:00;3.40;;;3.10;;
9665;SDS011;4871;52.004;5.924;2023-02-28T03:46:00;3.40;;;3.10;;
9665;SDS011;4871;52.004;5.924;2023-02-28T03:47:02;3.40;;;3.10;;
9665;SDS011;4871;52.004;5.924;2023-02-28T03:48:00;3.40;;;3.10;;
9665;SDS011;4871;52.004;5.924;2023-02-28T03:49:01;3.40;;;3.10;;
9665;SDS011;4871;52.004;5.924;2023-02-28T03:50:01;3.40;;;3.10;;
9665;SDS011;4871;52.004;5.924;2023-02-28T03:51:00;3.40;;;3.10;;
9665;SDS011;4871;52.004;5.924;2023-02-28T03:52:00;3.40;;;3.10;;
9665;SDS011;4871;52.004;5.924;2023-02-28T03:53:01;3.40;;;3.10;;
9665;SDS011;4871;52.004;5.924;2023-02-28T03:54:02;3.40;;;3.10;;
9665;SDS011;4871;52.004;5.924;2023-02-28T03:55:03;3.40;;;3.10;;
9665;SDS011;4871;52.004;5.924;2023-02-28T03:56:01;3.40;;;3.10;;
9665;SDS011;4871;52.004;5.924;2023-02-28T03:57:03;3.40;;;3.10;;
9665;SDS011;4871;52.004;5.924;2023-02-28T03:58:01;3.40;;;3.10;;
9665;SDS011;4871;52.004;5.924;2023-02-28T03:59:01;5.40;;;3.40;;
9665;SDS011;4871;52.004;5.924;2023-02-28T04:00:02;5.40;;;3.40;;
9665;SDS011;4871;52.004;5.924;2023-02-28T04:01:01;5.40;;;3.40;;
9665;SDS011;4871;52.004;5.924;2023-02-28T04:02:00;5.40;;;3.40;;
9665;SDS011;4871;52.004;5.924;2023-02-28T04:03:00;5.40;;;3.40;;
9665;SDS011;4871;52.004;5.924;2023-02-28T04:04:00;5.40;;;3.40;;
9665;SDS011;4871;52.004;5.924;2023-02-28T04:05:00;5.40;;;3.40;;
9665;SDS011;4871;52.004;5.924;2023-02-28T04:06:00;5.40;;;3.40;;
9665;SDS011;4871;52.004;5.924;2023-02-28T04:07:01;5.40;;;3.40;;
9665;SDS011;4871;52.004;5.924;2023-02-28T04:08:03;5.40;;;3.40;;
9665;SDS011;4871;52.004;5.924;2023-02-28T04:09:00;5.40;;;3.40;;
9665;SDS011;4871;52.004;5.924;2023-02-28T04:10:00;5.40;;;3.40;;
9665;SDS011;4871;52.004;5.924;2023-02-28T04:11:00;5.40;;;3.40;;
9665;SDS011;4871;52.004;5.924;2023-02-28T04:12:00;5.40;;;3.40;;
9665;SDS011;4871;52.004;5.924;2023-02-28T04:13:00;5.40;;;3.40;;
9665;SDS011;4871;52.004;5.924;2023-02-28T04:14:00;5.40;;;3.40;;
9665;SDS011;4871;52.004;5.924;2023-02-28T04:15:00;5.40;;;3.40;;
9665;SDS011;4871;52.004;5.924;2023-02-28T04:16:00;5.40;;;3.40;;
9665;SDS011;4871;52.004;5.924;2023-02-28T04:17:03;5.40;;;3.40;;
9665;SDS011;4871;52.004;5.924;2023-02-28T04:18:00;5.40;;;3.40;;
9665;SDS011;4871;52.004;5.924;2023-02-28T04:19:05;5.40;;;3.40;;
9665;SDS011;4871;52.004;5.924;2023-02-28T04:20:00;5.40;;;3.40;;
9665;SDS011;4871;52.004;5.924;2023-02-28T04:21:00;5.40;;;3.40;;
9665;SDS011;4871;52.004;5.924;2023-02-28T04:22:00;5.40;;;3.40;;
9665;SDS011;4871;52.004;5.924;2023-02-28T04:23:00;5.40;;;3.40;;
9665;SDS011;4871;52.004;5.924;2023-02-28T04:24:02;5.40;;;3.40;;
9665;SDS011;4871;52.004;5.924;2023-02-28T04:25:00;5.40;;;3.40;;
9665;SDS011;4871;52.004;5.924;2023-02-28T04:26:02;5.40;;;3.40;;
9665;SDS011;4871;52.004;5.924;2023-02-28T04:27:00;5.40;;;3.40;;
9665;SDS011;4871;52.004;5.924;2023-02-28T04:28:00;5.40;;;3.40;;
9665;SDS011;4871;52.004;5.924;2023-02-28T04:29:01;3.60;;;3.20;;
9665;SDS011;4871;52.004;5.924;2023-02-28T04:30:00;3.60;;;3.20;;
9665;SDS011;4871;52.004;5.924;2023-02-28T04:31:01;3.60;;;3.20;;
9665;SDS011;4871;52.004;5.924;2023-02-28T04:32:00;3.60;;;3.20;;
9665;SDS011;4871;52.004;5.924;2023-02-28T04:33:00;3.60;;;3.20;;
9665;SDS011;4871;52.004;5.924;2023-02-28T04:34:02;3.60;;;3.20;;
9665;SDS011;4871;52.004;5.924;2023-02-28T04:35:00;3.60;;;3.20;;
9665;SDS011;4871;52.004;5.924;2023-02-28T04:36:01;3.60;;;3.20;;
9665;SDS011;4871;52.004;5.924;2023-02-28T04:37:00;3.60;;;3.20;;
9665;SDS011;4871;52.004;5.924;2023-02-28T04:38:00;3.60;;;3.20;;
9665;SDS011;4871;52.004;5.924;2023-02-28T04:39:00;3.60;;;3.20;;
9665;SDS011;4871;52.004;5.924;2023-02-28T04:40:00;3.60;;;3.20;;
9665;SDS011;4871;52.004;5.924;2023-02-28T04:41:00;3.60;;;3.20;;
9665;SDS011;4871;52.004;5.924;2023-02-28T04:42:00;3.60;;;3.20;;
9665;SDS011;4871;52.004;5.924;2023-02-28T04:43:00;3.60;;;3.20;;
9665;SDS011;4871;52.004;5.924;2023-02-28T04:44:00;3.60;;;3.20;;
9665;SDS011;4871;52.004;5.924;2023-02-28T04:45:00;3.60;;;3.20;;
9665;SDS011;4871;52.004;5.924;2023-02-28T04:46:01;3.60;;;3.20;;
9665;SDS011;4871;52.004;5.924;2023-02-28T04:47:00;3.60;;;3.20;;
9665;SDS011;4871;52.004;5.924;2023-02-28T04:48:00;3.60;;;3.20;;
9665;SDS011;4871;52.004;5.924;2023-02-28T04:49:00;3.60;;;3.20;;
9665;SDS011;4871;52.004;5.924;2023-02-28T04:50:00;3.60;;;3.20;;
9665;SDS011;4871;52.004;5.924;2023-02-28T04:51:00;3.60;;;3.20;;
9665;SDS011;4871;52.004;5.924;2023-02-28T04:52:00;3.60;;;3.20;;
9665;SDS011;4871;52.004;5.924;2023-02-28T04:53:00;3.60;;;3.20;;
9665;SDS011;4871;52.004;5.924;2023-02-28T04:54:00;3.60;;;3.20;;
9665;SDS011;4871;52.004;5.924;2023-02-28T04:55:00;3.60;;;3.20;;
9665;SDS011;4871;52.004;5.924;2023-02-28T04:56:00;3.60;;;3.20;;
9665;SDS011;4871;52.004;5.924;2023-02-28T04:57:01;3.60;;;3.20;;
9665;SDS011;4871;52.004;5.924;2023-02-28T04:58:00;3.60;;;3.20;;
9665;SDS011;4871;52.004;5.924;2023-02-28T04:59:00;4.00;;;2.90;;
9665;SDS011;4871;52.004;5.924;2023-02-28T05:00:11;4.00;;;2.90;;
9665;SDS011;4871;52.004;5.924;2023-02-28T05:01:01;4.00;;;2.90;;
9665;SDS011;4871;52.004;5.924;2023-02-28T05:02:00;4.00;;;2.90;;
9665;SDS011;4871;52.004;5.924;2023-02-28T05:03:00;4.00;;;2.90;;
9665;SDS011;4871;52.004;5.924;2023-02-28T05:04:02;4.00;;;2.90;;
9665;SDS011;4871;52.004;5.924;2023-02-28T05:05:00;4.00;;;2.90;;
9665;SDS011;4871;52.004;5.924;2023-02-28T05:06:00;4.00;;;2.90;;
9665;SDS011;4871;52.004;5.924;2023-02-28T05:07:00;4.00;;;2.90;;
9665;SDS011;4871;52.004;5.924;2023-02-28T05:08:00;4.00;;;2.90;;
9665;SDS011;4871;52.004;5.924;2023-02-28T05:09:00;4.00;;;2.90;;
9665;SDS011;4871;52.004;5.924;2023-02-28T05:10:00;4.00;;;2.90;;
9665;SDS011;4871;52.004;5.924;2023-02-28T05:11:01;4.00;;;2.90;;
9665;SDS011;4871;52.004;5.924;2023-02-28T05:12:00;4.00;;;2.90;;
9665;SDS011;4871;52.004;5.924;2023-02-28T05:13:00;4.00;;;2.90;;
9665;SDS011;4871;52.004;5.924;2023-02-28T05:14:00;4.00;;;2.90;;
9665;SDS011;4871;52.004;5.924;2023-02-28T05:15:02;4.00;;;2.90;;
9665;SDS011;4871;52.004;5.924;2023-02-28T05:16:00;4.00;;;2.90;;
9665;SDS011;4871;52.004;5.924;2023-02-28T05:17:00;4.00;;;2.90;;
9665;SDS011;4871;52.004;5.924;2023-02-28T05:18:00;4.00;;;2.90;;
9665;SDS011;4871;52.004;5.924;2023-02-28T05:19:00;4.00;;;2.90;;
9665;SDS011;4871;52.004;5.924;2023-02-28T05:20:00;4.00;;;2.90;;
9665;SDS011;4871;52.004;5.924;2023-02-28T05:21:02;4.00;;;2.90;;
9665;SDS011;4871;52.004;5.924;2023-02-28T05:22:00;4.00;;;2.90;;
9665;SDS011;4871;52.004;5.924;2023-02-28T05:23:00;4.00;;;2.90;;
9665;SDS011;4871;52.004;5.924;2023-02-28T05:24:00;4.00;;;2.90;;
9665;SDS011;4871;52.004;5.924;2023-02-28T05:25:00;4.00;;;2.90;;
9665;SDS011;4871;52.004;5.924;2023-02-28T05:26:00;4.00;;;2.90;;
9665;SDS011;4871;52.004;5.924;2023-02-28T05:27:00;4.00;;;2.90;;
9665;SDS011;4871;52.004;5.924;2023-02-28T05:28:00;4.00;;;2.90;;
9665;SDS011;4871;52.004;5.924;2023-02-28T05:29:00;3.30;;;2.60;;
9665;SDS011;4871;52.004;5.924;2023-02-28T05:30:03;3.30;;;2.60;;
9665;SDS011;4871;52.004;5.924;2023-02-28T05:31:00;3.30;;;2.60;;
9665;SDS011;4871;52.004;5.924;2023-02-28T05:32:00;3.30;;;2.60;;
9665;SDS011;4871;52.004;5.924;2023-02-28T05:33:00;3.30;;;2.60;;
9665;SDS011;4871;52.004;5.924;2023-02-28T05:34:00;3.30;;;2.60;;
9665;SDS011;4871;52.004;5.924;2023-02-28T05:35:00;3.30;;;2.60;;
9665;SDS011;4871;52.004;5.924;2023-02-28T05:36:00;3.30;;;2.60;;
9665;SDS011;4871;52.004;5.924;2023-02-28T05:37:00;3.30;;;2.60;;
9665;SDS011;4871;52.004;5.924;2023-02-28T05:38:00;3.30;;;2.60;;
9665;SDS011;4871;52.004;5.924;2023-02-28T05:39:00;3.30;;;2.60;;
9665;SDS011;4871;52.004;5.924;2023-02-28T05:40:00;3.30;;;2.60;;
9665;SDS011;4871;52.004;5.924;2023-02-28T05:41:04;3.30;;;2.60;;
9665;SDS011;4871;52.004;5.924;2023-02-28T05:42:00;3.30;;;2.60;;
9665;SDS011;4871;52.004;5.924;2023-02-28T05:43:00;3.30;;;2.60;;
9665;SDS011;4871;52.004;5.924;2023-02-28T05:44:00;3.30;;;2.60;;
9665;SDS011;4871;52.004;5.924;2023-02-28T05:45:00;3.30;;;2.60;;
9665;SDS011;4871;52.004;5.924;2023-02-28T05:46:01;3.30;;;2.60;;
9665;SDS011;4871;52.004;5.924;2023-02-28T05:47:00;3.30;;;2.60;;
9665;SDS011;4871;52.004;5.924;2023-02-28T05:48:00;3.30;;;2.60;;
9665;SDS011;4871;52.004;5.924;2023-02-28T05:49:00;3.30;;;2.60;;
9665;SDS011;4871;52.004;5.924;2023-02-28T05:50:00;3.30;;;2.60;;
9665;SDS011;4871;52.004;5.924;2023-02-28T05:51:00;3.30;;;2.60;;
9665;SDS011;4871;52.004;5.924;2023-02-28T05:52:00;3.30;;;2.60;;
9665;SDS011;4871;52.004;5.924;2023-02-28T05:53:00;3.30;;;2.60;;
9665;SDS011;4871;52.004;5.924;2023-02-28T05:54:01;3.30;;;2.60;;
9665;SDS011;4871;52.004;5.924;2023-02-28T05:55:00;3.30;;;2.60;;
9665;SDS011;4871;52.004;5.924;2023-02-28T05:56:00;3.30;;;2.60;;
9665;SDS011;4871;52.004;5.924;2023-02-28T05:57:00;3.30;;;2.60;;
9665;SDS011;4871;52.004;5.924;2023-02-28T05:58:00;3.30;;;2.60;;
9665;SDS011;4871;52.004;5.924;2023-02-28T05:59:00;2.80;;;2.60;;
9665;SDS011;4871;52.004;5.924;2023-02-28T06:00:00;2.80;;;2.60;;
9665;SDS011;4871;52.004;5.924;2023-02-28T06:01:00;2.80;;;2.60;;
9665;SDS011;4871;52.004;5.924;2023-02-28T06:02:00;2.80;;;2.60;;
9665;SDS011;4871;52.004;5.924;2023-02-28T06:03:01;2.80;;;2.60;;
9665;SDS011;4871;52.004;5.924;2023-02-28T06:04:01;2.80;;;2.60;;
9665;SDS011;4871;52.004;5.924;2023-02-28T06:05:00;2.80;;;2.60;;
9665;SDS011;4871;52.004;5.924;2023-02-28T06:06:00;2.80;;;2.60;;
9665;SDS011;4871;52.004;5.924;2023-02-28T06:07:01;2.80;;;2.60;;
9665;SDS011;4871;52.004;5.924;2023-02-28T06:08:00;2.80;;;2.60;;
9665;SDS011;4871;52.004;5.924;2023-02-28T06:09:00;2.80;;;2.60;;
9665;SDS011;4871;52.004;5.924;2023-02-28T06:10:00;2.80;;;2.60;;
9665;SDS011;4871;52.004;5.924;2023-02-28T06:11:02;2.80;;;2.60;;
9665;SDS011;4871;52.004;5.924;2023-02-28T06:12:01;2.80;;;2.60;;
9665;SDS011;4871;52.004;5.924;2023-02-28T06:13:02;2.80;;;2.60;;
9665;SDS011;4871;52.004;5.924;2023-02-28T06:14:01;2.80;;;2.60;;
9665;SDS011;4871;52.004;5.924;2023-02-28T06:15:00;2.80;;;2.60;;